sensor_id;sensor_type;location;lat;lon;timestamp;temperature;humidity
19342;DHT22;9807;48.258;12.690;2023-03-01T00:01:37;6.60;99.90
19342;DHT22;9807;48.258;12.690;2023-03-01T00:04:03;6.80;99.90
19342;DHT22;9807;48.258;12.690;2023-03-01T00:06:28;6.70;99.90
19342;DHT22;9807;48.258;12.690;2023-03-01T00:08:54;6.60;99.90
19342;DHT22;9807;48.258;12.690;2023-03-01T00:11:26;6.70;99.90
19342;DHT22;9807;48.258;12.690;2023-03-01T00:13:54;6.70;99.90
19342;DHT22;9807;48.258;12.690;2023-03-01T00:16:29;6.70;99.90
19342;DHT22;9807;48.258;12.690;2023-03-01T00:18:56;6.80;99.90
19342;DHT22;9807;48.258;12.690;2023-03-01T00:21:23;6.80;99.90
19342;DHT22;9807;48.258;12.690;2023-03-01T00:23:49;6.70;99.90
19342;DHT22;9807;48.258;12.690;2023-03-01T00:26:16;6.70;99.90
19342;DHT22;9807;48.258;12.690;2023-03-01T00:28:43;6.70;99.90
19342;DHT22;9807;48.258;12.690;2023-03-01T00:31:18;6.70;99.90
19342;DHT22;9807;48.258;12.690;2023-03-01T00:33:44;6.60;99.90
19342;DHT22;9807;48.258;12.690;2023-03-01T00:36:14;6.70;99.90
19342;DHT22;9807;48.258;12.690;2023-03-01T00:38:43;6.60;99.90
19342;DHT22;9807;48.258;12.690;2023-03-01T00:41:12;6.70;99.90
19342;DHT22;9807;48.258;12.690;2023-03-01T00:43:40;6.50;99.90
19342;DHT22;9807;48.258;12.690;2023-03-01T00:46:08;6.70;99.90
19342;DHT22;9807;48.258;12.690;2023-03-01T00:48:37;6.40;99.90
19342;DHT22;9807;48.258;12.690;2023-03-01T00:51:12;6.20;99.90
19342;DHT22;9807;48.258;12.690;2023-03-01T00:53:38;6.40;99.90
19342;DHT22;9807;48.258;12.690;2023-03-01T00:56:06;6.40;99.90
19342;DHT22;9807;48.258;12.690;2023-03-01T00:58:33;6.50;99.90
19342;DHT22;9807;48.258;12.690;2023-03-01T01:00:59;6.30;99.90
19342;DHT22;9807;48.258;12.690;2023-03-01T01:03:28;6.40;99.90
19342;DHT22;9807;48.258;12.690;2023-03-01T01:05:54;6.40;99.90
19342;DHT22;9807;48.258;12.690;2023-03-01T01:08:20;6.50;99.90
19342;DHT22;9807;48.258;12.690;2023-03-01T01:10:48;6.50;99.90
19342;DHT22;9807;48.258;12.690;2023-03-01T01:13:14;6.50;99.90
19342;DHT22;9807;48.258;12.690;2023-03-01T01:15:40;6.40;99.90
19342;DHT22;9807;48.258;12.690;2023-03-01T01:18:08;6.50;99.90
19342;DHT22;9807;48.258;12.690;2023-03-01T01:20:35;6.30;99.90
19342;DHT22;9807;48.258;12.690;2023-03-01T01:23:02;6.50;99.90
19342;DHT22;9807;48.258;12.690;2023-03-01T01:25:28;6.50;99.90
19342;DHT22;9807;48.258;12.690;2023-03-01T01:27:53;6.40;99.90
19342;DHT22;9807;48.258;12.690;2023-03-01T01:30:19;6.30;99.90
19342;DHT22;9807;48.258;12.690;2023-03-01T01:32:45;6.30;99.90
19342;DHT22;9807;48.258;12.690;2023-03-01T01:35:11;6.40;99.90
19342;DHT22;9807;48.258;12.690;2023-03-01T01:37:37;6.30;99.90
19342;DHT22;9807;48.258;12.690;2023-03-01T01:40:03;6.40;99.90
19342;DHT22;9807;48.258;12.690;2023-03-01T01:42:30;6.30;99.90
19342;DHT22;9807;48.258;12.690;2023-03-01T01:47:55;6.50;99.90
19342;DHT22;9807;48.258;12.690;2023-03-01T01:50:22;6.40;99.90
19342;DHT22;9807;48.258;12.690;2023-03-01T01:52:49;6.40;99.90
19342;DHT22;9807;48.258;12.690;2023-03-01T01:55:23;6.30;99.90
19342;DHT22;9807;48.258;12.690;2023-03-01T01:57:52;6.40;99.90
19342;DHT22;9807;48.258;12.690;2023-03-01T02:00:22;6.40;99.90
19342;DHT22;9807;48.258;12.690;2023-03-01T02:02:59;6.40;99.90
19342;DHT22;9807;48.258;12.690;2023-03-01T02:05:47;6.40;99.90
19342;DHT22;9807;48.258;12.690;2023-03-01T02:08:18;6.40;99.90
19342;DHT22;9807;48.258;12.690;2023-03-01T02:10:45;6.30;99.90
19342;DHT22;9807;48.258;12.690;2023-03-01T02:13:12;6.30;99.90
19342;DHT22;9807;48.258;12.690;2023-03-01T02:15:39;6.40;99.90
19342;DHT22;9807;48.258;12.690;2023-03-01T02:18:07;6.30;99.90
19342;DHT22;9807;48.258;12.690;2023-03-01T02:21:05;6.20;99.90
19342;DHT22;9807;48.258;12.690;2023-03-01T02:23:36;6.20;99.90
19342;DHT22;9807;48.258;12.690;2023-03-01T02:28:43;6.10;99.90
19342;DHT22;9807;48.258;12.690;2023-03-01T02:31:11;6.00;99.90
19342;DHT22;9807;48.258;12.690;2023-03-01T02:33:57;6.10;99.90
19342;DHT22;9807;48.258;12.690;2023-03-01T02:36:28;6.10;99.90
19342;DHT22;9807;48.258;12.690;2023-03-01T02:38:57;6.20;99.90
19342;DHT22;9807;48.258;12.690;2023-03-01T02:41:25;6.10;99.90
19342;DHT22;9807;48.258;12.690;2023-03-01T02:43:52;6.10;99.90
19342;DHT22;9807;48.258;12.690;2023-03-01T02:46:21;6.20;99.90
19342;DHT22;9807;48.258;12.690;2023-03-01T02:48:51;6.20;99.90
19342;DHT22;9807;48.258;12.690;2023-03-01T02:51:42;6.30;99.90
19342;DHT22;9807;48.258;12.690;2023-03-01T02:57:07;6.20;99.90
19342;DHT22;9807;48.258;12.690;2023-03-01T02:59:36;6.20;99.90
19342;DHT22;9807;48.258;12.690;2023-03-01T03:02:07;6.30;99.90
19342;DHT22;9807;48.258;12.690;2023-03-01T03:04:33;6.20;99.90
19342;DHT22;9807;48.258;12.690;2023-03-01T03:06:59;6.20;99.90
19342;DHT22;9807;48.258;12.690;2023-03-01T03:09:25;6.00;99.90
19342;DHT22;9807;48.258;12.690;2023-03-01T03:11:51;6.10;99.90
19342;DHT22;9807;48.258;12.690;2023-03-01T03:14:17;5.90;99.90
19342;DHT22;9807;48.258;12.690;2023-03-01T03:16:48;5.80;99.90
19342;DHT22;9807;48.258;12.690;2023-03-01T03:19:16;5.70;99.90
19342;DHT22;9807;48.258;12.690;2023-03-01T03:21:43;5.80;99.90
19342;DHT22;9807;48.258;12.690;2023-03-01T03:24:11;5.80;99.90
19342;DHT22;9807;48.258;12.690;2023-03-01T03:26:37;5.80;99.90
19342;DHT22;9807;48.258;12.690;2023-03-01T03:29:03;6.00;99.90
19342;DHT22;9807;48.258;12.690;2023-03-01T03:31:29;5.90;99.90
19342;DHT22;9807;48.258;12.690;2023-03-01T03:33:55;5.80;99.90
19342;DHT22;9807;48.258;12.690;2023-03-01T03:36:25;5.80;99.90
19342;DHT22;9807;48.258;12.690;2023-03-01T03:38:51;5.70;99.90
19342;DHT22;9807;48.258;12.690;2023-03-01T03:41:17;5.60;99.90
19342;DHT22;9807;48.258;12.690;2023-03-01T03:43:44;5.60;99.90
19342;DHT22;9807;48.258;12.690;2023-03-01T03:46:11;5.70;99.90
19342;DHT22;9807;48.258;12.690;2023-03-01T03:48:47;5.70;99.90
19342;DHT22;9807;48.258;12.690;2023-03-01T03:51:17;5.90;99.90
19342;DHT22;9807;48.258;12.690;2023-03-01T03:53:43;5.80;99.90
19342;DHT22;9807;48.258;12.690;2023-03-01T03:56:10;5.70;99.90
19342;DHT22;9807;48.258;12.690;2023-03-01T03:58:36;5.90;99.90
19342;DHT22;9807;48.258;12.690;2023-03-01T04:01:02;5.30;99.90
19342;DHT22;9807;48.258;12.690;2023-03-01T04:03:29;5.50;99.90
19342;DHT22;9807;48.258;12.690;2023-03-01T04:06:00;5.40;99.90
19342;DHT22;9807;48.258;12.690;2023-03-01T04:08:27;5.40;99.90
19342;DHT22;9807;48.258;12.690;2023-03-01T04:11:02;5.40;99.90
19342;DHT22;9807;48.258;12.690;2023-03-01T04:13:47;5.50;99.90
19342;DHT22;9807;48.258;12.690;2023-03-01T04:16:13;5.60;99.90
19342;DHT22;9807;48.258;12.690;2023-03-01T04:18:39;5.60;99.90
19342;DHT22;9807;48.258;12.690;2023-03-01T04:21:05;5.70;99.90
19342;DHT22;9807;48.258;12.690;2023-03-01T04:23:31;5.80;99.90
19342;DHT22;9807;48.258;12.690;2023-03-01T04:25:58;5.80;99.90
19342;DHT22;9807;48.258;12.690;2023-03-01T04:28:32;5.70;99.90
19342;DHT22;9807;48.258;12.690;2023-03-01T04:31:07;5.70;99.90
19342;DHT22;9807;48.258;12.690;2023-03-01T04:33:52;5.70;99.90
19342;DHT22;9807;48.258;12.690;2023-03-01T04:36:22;5.90;99.90
19342;DHT22;9807;48.258;12.690;2023-03-01T04:38:49;5.80;99.90
19342;DHT22;9807;48.258;12.690;2023-03-01T04:41:17;5.80;99.90
19342;DHT22;9807;48.258;12.690;2023-03-01T04:43:43;5.70;99.90
19342;DHT22;9807;48.258;12.690;2023-03-01T04:46:12;5.40;99.90
19342;DHT22;9807;48.258;12.690;2023-03-01T04:48:40;5.30;99.90
19342;DHT22;9807;48.258;12.690;2023-03-01T04:51:06;5.50;99.90
19342;DHT22;9807;48.258;12.690;2023-03-01T04:53:34;5.60;99.90
19342;DHT22;9807;48.258;12.690;2023-03-01T04:56:03;5.70;99.90
19342;DHT22;9807;48.258;12.690;2023-03-01T04:58:32;5.70;99.90
19342;DHT22;9807;48.258;12.690;2023-03-01T05:00:58;5.70;99.90
19342;DHT22;9807;48.258;12.690;2023-03-01T05:03:24;5.60;99.90
19342;DHT22;9807;48.258;12.690;2023-03-01T05:05:52;5.60;99.90
19342;DHT22;9807;48.258;12.690;2023-03-01T05:08:18;5.60;99.90
19342;DHT22;9807;48.258;12.690;2023-03-01T05:10:46;5.70;99.90
19342;DHT22;9807;48.258;12.690;2023-03-01T05:13:14;5.80;99.90
19342;DHT22;9807;48.258;12.690;2023-03-01T05:15:48;5.70;99.90
19342;DHT22;9807;48.258;12.690;2023-03-01T05:18:14;5.50;99.90
19342;DHT22;9807;48.258;12.690;2023-03-01T05:20:40;5.60;99.90
19342;DHT22;9807;48.258;12.690;2023-03-01T05:23:06;5.70;99.90
19342;DHT22;9807;48.258;12.690;2023-03-01T05:25:33;5.70;99.90
19342;DHT22;9807;48.258;12.690;2023-03-01T05:28:02;5.80;99.90
19342;DHT22;9807;48.258;12.690;2023-03-01T05:30:35;5.60;99.90
19342;DHT22;9807;48.258;12.690;2023-03-01T05:33:01;5.70;99.90
19342;DHT22;9807;48.258;12.690;2023-03-01T05:35:27;5.80;99.90
19342;DHT22;9807;48.258;12.690;2023-03-01T05:37:54;5.70;99.90
19342;DHT22;9807;48.258;12.690;2023-03-01T05:40:22;5.60;99.90
19342;DHT22;9807;48.258;12.690;2023-03-01T05:42:54;5.70;99.90
19342;DHT22;9807;48.258;12.690;2023-03-01T05:45:21;5.70;99.90
19342;DHT22;9807;48.258;12.690;2023-03-01T05:47:49;5.80;99.90
19342;DHT22;9807;48.258;12.690;2023-03-01T05:50:17;5.80;99.90
19342;DHT22;9807;48.258;12.690;2023-03-01T05:52:51;5.80;99.90
19342;DHT22;9807;48.258;12.690;2023-03-01T05:55:19;5.80;99.90
19342;DHT22;9807;48.258;12.690;2023-03-01T05:57:46;5.80;99.90
19342;DHT22;9807;48.258;12.690;2023-03-01T06:00:14;5.80;99.90
19342;DHT22;9807;48.258;12.690;2023-03-01T06:02:40;5.80;99.90
19342;DHT22;9807;48.258;12.690;2023-03-01T06:05:07;5.70;99.90
19342;DHT22;9807;48.258;12.690;2023-03-01T06:07:39;5.80;99.90
19342;DHT22;9807;48.258;12.690;2023-03-01T06:10:07;5.70;99.90
19342;DHT22;9807;48.258;12.690;2023-03-01T06:12:36;5.60;99.90
19342;DHT22;9807;48.258;12.690;2023-03-01T06:15:02;5.70;99.90
19342;DHT22;9807;48.258;12.690;2023-03-01T06:17:30;5.80;99.90
19342;DHT22;9807;48.258;12.690;2023-03-01T06:19:56;5.80;99.90
19342;DHT22;9807;48.258;12.690;2023-03-01T06:22:22;5.80;99.90
19342;DHT22;9807;48.258;12.690;2023-03-01T06:24:48;5.80;99.90
19342;DHT22;9807;48.258;12.690;2023-03-01T06:27:14;5.70;99.90
19342;DHT22;9807;48.258;12.690;2023-03-01T06:29:40;5.70;99.90
19342;DHT22;9807;48.258;12.690;2023-03-01T06:32:06;5.70;99.90
19342;DHT22;9807;48.258;12.690;2023-03-01T06:34:33;5.70;99.90
19342;DHT22;9807;48.258;12.690;2023-03-01T06:37:00;5.70;99.90
19342;DHT22;9807;48.258;12.690;2023-03-01T06:39:28;5.70;99.90
19342;DHT22;9807;48.258;12.690;2023-03-01T06:41:54;5.70;99.90
19342;DHT22;9807;48.258;12.690;2023-03-01T06:44:20;5.80;99.90
19342;DHT22;9807;48.258;12.690;2023-03-01T06:46:46;5.80;99.90
19342;DHT22;9807;48.258;12.690;2023-03-01T06:49:12;5.90;99.90
19342;DHT22;9807;48.258;12.690;2023-03-01T06:51:38;6.00;99.90
19342;DHT22;9807;48.258;12.690;2023-03-01T06:54:04;5.80;99.90
19342;DHT22;9807;48.258;12.690;2023-03-01T06:56:31;6.00;99.90
19342;DHT22;9807;48.258;12.690;2023-03-01T06:58:57;6.10;99.90
19342;DHT22;9807;48.258;12.690;2023-03-01T07:01:23;6.10;99.90
19342;DHT22;9807;48.258;12.690;2023-03-01T07:03:49;6.10;99.90
19342;DHT22;9807;48.258;12.690;2023-03-01T07:06:15;6.10;99.90
19342;DHT22;9807;48.258;12.690;2023-03-01T07:08:41;6.30;99.90
19342;DHT22;9807;48.258;12.690;2023-03-01T07:11:09;6.30;99.90
19342;DHT22;9807;48.258;12.690;2023-03-01T07:13:38;6.40;99.90
19342;DHT22;9807;48.258;12.690;2023-03-01T07:16:04;6.50;99.90
19342;DHT22;9807;48.258;12.690;2023-03-01T07:18:30;6.40;99.90
19342;DHT22;9807;48.258;12.690;2023-03-01T07:20:56;6.60;99.90
19342;DHT22;9807;48.258;12.690;2023-03-01T07:23:21;6.60;99.90
19342;DHT22;9807;48.258;12.690;2023-03-01T07:25:54;6.70;99.90
19342;DHT22;9807;48.258;12.690;2023-03-01T07:28:22;6.80;99.90
19342;DHT22;9807;48.258;12.690;2023-03-01T07:30:50;6.90;99.90
19342;DHT22;9807;48.258;12.690;2023-03-01T07:33:17;7.00;99.90
19342;DHT22;9807;48.258;12.690;2023-03-01T07:35:42;7.20;99.90
19342;DHT22;9807;48.258;12.690;2023-03-01T07:38:08;7.20;99.90
19342;DHT22;9807;48.258;12.690;2023-03-01T07:40:37;7.10;99.90
19342;DHT22;9807;48.258;12.690;2023-03-01T07:43:03;7.00;99.90
19342;DHT22;9807;48.258;12.690;2023-03-01T07:45:29;7.00;99.90
19342;DHT22;9807;48.258;12.690;2023-03-01T07:47:55;7.10;99.90
19342;DHT22;9807;48.258;12.690;2023-03-01T07:50:24;7.20;99.90
19342;DHT22;9807;48.258;12.690;2023-03-01T07:52:49;7.30;99.90
19342;DHT22;9807;48.258;12.690;2023-03-01T07:55:16;7.40;99.90
19342;DHT22;9807;48.258;12.690;2023-03-01T07:57:42;7.50;99.90
19342;DHT22;9807;48.258;12.690;2023-03-01T08:00:10;7.50;99.90
19342;DHT22;9807;48.258;12.690;2023-03-01T08:02:37;7.50;99.90
19342;DHT22;9807;48.258;12.690;2023-03-01T08:05:03;7.30;99.90
19342;DHT22;9807;48.258;12.690;2023-03-01T08:07:29;7.20;99.90
19342;DHT22;9807;48.258;12.690;2023-03-01T08:09:55;7.20;99.90
19342;DHT22;9807;48.258;12.690;2023-03-01T08:12:21;7.20;99.90
19342;DHT22;9807;48.258;12.690;2023-03-01T08:14:46;7.20;99.90
19342;DHT22;9807;48.258;12.690;2023-03-01T08:17:18;7.20;99.90
19342;DHT22;9807;48.258;12.690;2023-03-01T08:19:45;7.20;99.90
19342;DHT22;9807;48.258;12.690;2023-03-01T08:22:10;7.30;99.90
19342;DHT22;9807;48.258;12.690;2023-03-01T08:24:36;7.20;99.90
19342;DHT22;9807;48.258;12.690;2023-03-01T08:27:03;7.40;99.90
19342;DHT22;9807;48.258;12.690;2023-03-01T08:29:31;7.40;99.90
19342;DHT22;9807;48.258;12.690;2023-03-01T08:31:59;7.20;99.90
19342;DHT22;9807;48.258;12.690;2023-03-01T08:34:25;7.10;99.90
19342;DHT22;9807;48.258;12.690;2023-03-01T08:36:52;7.10;99.90
19342;DHT22;9807;48.258;12.690;2023-03-01T08:39:19;7.10;99.90
19342;DHT22;9807;48.258;12.690;2023-03-01T08:41:46;7.00;99.90
19342;DHT22;9807;48.258;12.690;2023-03-01T08:44:13;7.10;99.90
19342;DHT22;9807;48.258;12.690;2023-03-01T08:46:45;7.10;99.90
19342;DHT22;9807;48.258;12.690;2023-03-01T08:49:16;6.90;99.90
19342;DHT22;9807;48.258;12.690;2023-03-01T08:51:42;7.20;99.90
19342;DHT22;9807;48.258;12.690;2023-03-01T08:54:18;7.20;99.90
19342;DHT22;9807;48.258;12.690;2023-03-01T08:56:44;7.00;99.90
19342;DHT22;9807;48.258;12.690;2023-03-01T08:59:14;7.10;99.90
19342;DHT22;9807;48.258;12.690;2023-03-01T09:01:41;7.00;99.90
19342;DHT22;9807;48.258;12.690;2023-03-01T09:04:16;7.00;99.90
19342;DHT22;9807;48.258;12.690;2023-03-01T09:06:43;6.90;99.90
19342;DHT22;9807;48.258;12.690;2023-03-01T09:09:13;6.80;99.90
19342;DHT22;9807;48.258;12.690;2023-03-01T09:11:40;6.90;99.90
19342;DHT22;9807;48.258;12.690;2023-03-01T09:14:06;7.10;99.90
19342;DHT22;9807;48.258;12.690;2023-03-01T09:16:32;6.90;99.90
19342;DHT22;9807;48.258;12.690;2023-03-01T09:19:02;6.90;99.90
19342;DHT22;9807;48.258;12.690;2023-03-01T09:21:31;6.90;99.90
19342;DHT22;9807;48.258;12.690;2023-03-01T09:23:57;6.80;99.90
19342;DHT22;9807;48.258;12.690;2023-03-01T09:26:24;6.80;99.90
19342;DHT22;9807;48.258;12.690;2023-03-01T09:28:52;6.80;99.90
19342;DHT22;9807;48.258;12.690;2023-03-01T09:31:20;6.80;99.90
19342;DHT22;9807;48.258;12.690;2023-03-01T09:33:47;6.90;99.90
19342;DHT22;9807;48.258;12.690;2023-03-01T09:36:19;6.80;99.90
19342;DHT22;9807;48.258;12.690;2023-03-01T09:38:46;6.80;99.90
19342;DHT22;9807;48.258;12.690;2023-03-01T09:41:42;6.70;99.90
19342;DHT22;9807;48.258;12.690;2023-03-01T09:46:55;6.80;99.90
19342;DHT22;9807;48.258;12.690;2023-03-01T09:49:28;6.90;99.90
19342;DHT22;9807;48.258;12.690;2023-03-01T09:54:22;7.00;99.90
19342;DHT22;9807;48.258;12.690;2023-03-01T09:59:49;7.10;99.90
19342;DHT22;9807;48.258;12.690;2023-03-01T10:02:26;7.20;99.90
19342;DHT22;9807;48.258;12.690;2023-03-01T10:05:05;7.10;99.90
19342;DHT22;9807;48.258;12.690;2023-03-01T10:10:34;7.10;99.90
19342;DHT22;9807;48.258;12.690;2023-03-01T10:13:17;7.20;99.90
19342;DHT22;9807;48.258;12.690;2023-03-01T10:16:11;7.20;99.90
19342;DHT22;9807;48.258;12.690;2023-03-01T10:18:37;7.30;99.90
19342;DHT22;9807;48.258;12.690;2023-03-01T10:21:22;7.30;99.90
19342;DHT22;9807;48.258;12.690;2023-03-01T10:23:52;7.10;99.90
19342;DHT22;9807;48.258;12.690;2023-03-01T10:29:08;7.30;99.90
19342;DHT22;9807;48.258;12.690;2023-03-01T10:31:46;7.20;99.90
19342;DHT22;9807;48.258;12.690;2023-03-01T10:34:18;7.20;99.90
19342;DHT22;9807;48.258;12.690;2023-03-01T10:37:01;7.30;99.90
19342;DHT22;9807;48.258;12.690;2023-03-01T10:39:29;7.30;99.90
19342;DHT22;9807;48.258;12.690;2023-03-01T10:42:03;7.00;99.90
19342;DHT22;9807;48.258;12.690;2023-03-01T10:44:41;7.10;99.90
19342;DHT22;9807;48.258;12.690;2023-03-01T10:47:14;7.20;99.90
19342;DHT22;9807;48.258;12.690;2023-03-01T10:49:55;7.30;99.90
19342;DHT22;9807;48.258;12.690;2023-03-01T10:52:28;7.40;99.90
19342;DHT22;9807;48.258;12.690;2023-03-01T10:55:23;7.40;99.90
19342;DHT22;9807;48.258;12.690;2023-03-01T10:58:16;7.60;99.90
19342;DHT22;9807;48.258;12.690;2023-03-01T11:00:55;7.50;99.90
19342;DHT22;9807;48.258;12.690;2023-03-01T11:03:24;7.60;99.90
19342;DHT22;9807;48.258;12.690;2023-03-01T11:06:19;7.70;99.90
19342;DHT22;9807;48.258;12.690;2023-03-01T11:08:49;7.60;99.90
19342;DHT22;9807;48.258;12.690;2023-03-01T11:11:23;7.60;99.90
19342;DHT22;9807;48.258;12.690;2023-03-01T11:13:51;7.70;99.90
19342;DHT22;9807;48.258;12.690;2023-03-01T11:16:44;7.80;99.90
19342;DHT22;9807;48.258;12.690;2023-03-01T11:24:51;7.80;99.90
19342;DHT22;9807;48.258;12.690;2023-03-01T11:27:24;7.80;99.90
19342;DHT22;9807;48.258;12.690;2023-03-01T11:30:03;7.90;99.90
19342;DHT22;9807;48.258;12.690;2023-03-01T11:32:39;7.90;99.90
19342;DHT22;9807;48.258;12.690;2023-03-01T11:35:24;8.00;99.90
19342;DHT22;9807;48.258;12.690;2023-03-01T11:38:19;7.90;99.90
19342;DHT22;9807;48.258;12.690;2023-03-01T11:40:54;8.00;99.90
19342;DHT22;9807;48.258;12.690;2023-03-01T11:43:40;8.20;99.90
19342;DHT22;9807;48.258;12.690;2023-03-01T11:54:37;8.10;99.90
19342;DHT22;9807;48.258;12.690;2023-03-01T12:00:03;8.30;99.90
19342;DHT22;9807;48.258;12.690;2023-03-01T12:27:22;8.50;99.90
19342;DHT22;9807;48.258;12.690;2023-03-01T12:37:47;8.60;99.90
19342;DHT22;9807;48.258;12.690;2023-03-01T12:40:20;8.60;99.90
19342;DHT22;9807;48.258;12.690;2023-03-01T12:43:17;8.70;99.90
19342;DHT22;9807;48.258;12.690;2023-03-01T12:51:19;8.70;99.90
19342;DHT22;9807;48.258;12.690;2023-03-01T12:53:50;8.70;99.90
19342;DHT22;9807;48.258;12.690;2023-03-01T12:56:22;8.80;99.90
19342;DHT22;9807;48.258;12.690;2023-03-01T13:07:15;8.80;99.90
19342;DHT22;9807;48.258;12.690;2023-03-01T13:17:49;8.90;99.90
19342;DHT22;9807;48.258;12.690;2023-03-01T13:20:26;9.00;99.90
19342;DHT22;9807;48.258;12.690;2023-03-01T13:23:25;9.00;99.90
19342;DHT22;9807;48.258;12.690;2023-03-01T13:26:07;9.00;99.90
19342;DHT22;9807;48.258;12.690;2023-03-01T13:28:38;9.10;99.90
19342;DHT22;9807;48.258;12.690;2023-03-01T13:31:55;9.10;99.90
19342;DHT22;9807;48.258;12.690;2023-03-01T13:33:58;9.10;99.90
19342;DHT22;9807;48.258;12.690;2023-03-01T13:46:57;9.30;99.90
19342;DHT22;9807;48.258;12.690;2023-03-01T13:49:29;9.30;99.90
19342;DHT22;9807;48.258;12.690;2023-03-01T13:51:57;9.30;99.90
19342;DHT22;9807;48.258;12.690;2023-03-01T13:54:32;9.40;99.90
19342;DHT22;9807;48.258;12.690;2023-03-01T13:57:00;9.60;99.90
19342;DHT22;9807;48.258;12.690;2023-03-01T13:59:27;9.50;99.90
19342;DHT22;9807;48.258;12.690;2023-03-01T14:01:59;9.50;99.90
19342;DHT22;9807;48.258;12.690;2023-03-01T14:07:08;9.70;99.90
19342;DHT22;9807;48.258;12.690;2023-03-01T14:09:37;9.70;99.90
19342;DHT22;9807;48.258;12.690;2023-03-01T14:15:31;9.70;99.90
19342;DHT22;9807;48.258;12.690;2023-03-01T14:18:20;9.80;99.90
19342;DHT22;9807;48.258;12.690;2023-03-01T14:20:51;9.70;99.90
19342;DHT22;9807;48.258;12.690;2023-03-01T14:23:23;9.70;99.90
19342;DHT22;9807;48.258;12.690;2023-03-01T14:25:55;9.70;99.90
19342;DHT22;9807;48.258;12.690;2023-03-01T14:28:29;9.70;99.90
19342;DHT22;9807;48.258;12.690;2023-03-01T14:30:58;9.70;99.90
19342;DHT22;9807;48.258;12.690;2023-03-01T14:33:27;9.70;99.90
19342;DHT22;9807;48.258;12.690;2023-03-01T14:35:58;9.80;99.90
19342;DHT22;9807;48.258;12.690;2023-03-01T14:41:05;9.70;99.90
19342;DHT22;9807;48.258;12.690;2023-03-01T14:43:31;9.70;99.90
19342;DHT22;9807;48.258;12.690;2023-03-01T14:45:58;9.40;99.90
19342;DHT22;9807;48.258;12.690;2023-03-01T14:48:24;9.80;99.90
19342;DHT22;9807;48.258;12.690;2023-03-01T14:50:51;9.70;99.90
19342;DHT22;9807;48.258;12.690;2023-03-01T14:53:25;9.60;99.90
19342;DHT22;9807;48.258;12.690;2023-03-01T14:55:54;9.60;99.90
19342;DHT22;9807;48.258;12.690;2023-03-01T14:58:24;9.70;99.90
19342;DHT22;9807;48.258;12.690;2023-03-01T15:00:56;9.90;99.90
19342;DHT22;9807;48.258;12.690;2023-03-01T15:03:30;9.80;99.90
19342;DHT22;9807;48.258;12.690;2023-03-01T15:06:00;9.80;99.90
19342;DHT22;9807;48.258;12.690;2023-03-01T15:08:27;9.80;99.90
19342;DHT22;9807;48.258;12.690;2023-03-01T15:11:04;9.80;99.90
19342;DHT22;9807;48.258;12.690;2023-03-01T15:13:35;9.80;99.90
19342;DHT22;9807;48.258;12.690;2023-03-01T15:16:11;9.80;99.90
19342;DHT22;9807;48.258;12.690;2023-03-01T15:18:43;9.70;99.90
19342;DHT22;9807;48.258;12.690;2023-03-01T15:21:16;9.70;99.90
19342;DHT22;9807;48.258;12.690;2023-03-01T15:23:55;9.50;99.90
19342;DHT22;9807;48.258;12.690;2023-03-01T15:26:29;9.70;99.90
19342;DHT22;9807;48.258;12.690;2023-03-01T15:28:57;9.50;99.90
19342;DHT22;9807;48.258;12.690;2023-03-01T15:31:27;9.50;99.90
19342;DHT22;9807;48.258;12.690;2023-03-01T15:34:21;9.50;99.90
19342;DHT22;9807;48.258;12.690;2023-03-01T15:36:47;9.50;99.90
19342;DHT22;9807;48.258;12.690;2023-03-01T15:41:52;9.50;99.90
19342;DHT22;9807;48.258;12.690;2023-03-01T15:44:28;9.50;99.90
19342;DHT22;9807;48.258;12.690;2023-03-01T15:46:54;9.60;99.90
19342;DHT22;9807;48.258;12.690;2023-03-01T15:49:41;9.50;99.90
19342;DHT22;9807;48.258;12.690;2023-03-01T15:52:19;9.50;99.90
19342;DHT22;9807;48.258;12.690;2023-03-01T15:54:49;9.40;99.90
19342;DHT22;9807;48.258;12.690;2023-03-01T15:57:15;9.40;99.90
19342;DHT22;9807;48.258;12.690;2023-03-01T15:59:41;9.40;99.90
19342;DHT22;9807;48.258;12.690;2023-03-01T16:02:12;9.30;99.90
19342;DHT22;9807;48.258;12.690;2023-03-01T16:04:39;9.40;99.90
19342;DHT22;9807;48.258;12.690;2023-03-01T16:07:05;9.30;99.90
19342;DHT22;9807;48.258;12.690;2023-03-01T16:09:31;9.40;99.90
19342;DHT22;9807;48.258;12.690;2023-03-01T16:12:00;9.40;99.90
19342;DHT22;9807;48.258;12.690;2023-03-01T16:14:27;9.40;99.90
19342;DHT22;9807;48.258;12.690;2023-03-01T16:16:56;9.50;99.90
19342;DHT22;9807;48.258;12.690;2023-03-01T16:19:22;9.50;99.90
19342;DHT22;9807;48.258;12.690;2023-03-01T16:21:47;9.30;99.90
19342;DHT22;9807;48.258;12.690;2023-03-01T16:24:15;9.20;99.90
19342;DHT22;9807;48.258;12.690;2023-03-01T16:26:41;9.30;99.90
19342;DHT22;9807;48.258;12.690;2023-03-01T16:29:07;9.20;99.90
19342;DHT22;9807;48.258;12.690;2023-03-01T16:31:33;9.00;99.90
19342;DHT22;9807;48.258;12.690;2023-03-01T16:33:59;9.10;99.90
19342;DHT22;9807;48.258;12.690;2023-03-01T16:36:26;9.00;99.90
19342;DHT22;9807;48.258;12.690;2023-03-01T16:38:54;8.90;99.90
19342;DHT22;9807;48.258;12.690;2023-03-01T16:41:22;8.90;99.90
19342;DHT22;9807;48.258;12.690;2023-03-01T16:43:48;8.80;99.90
19342;DHT22;9807;48.258;12.690;2023-03-01T16:46:26;8.80;99.90
19342;DHT22;9807;48.258;12.690;2023-03-01T16:48:53;8.80;99.90
19342;DHT22;9807;48.258;12.690;2023-03-01T16:51:20;8.90;99.90
19342;DHT22;9807;48.258;12.690;2023-03-01T16:53:46;8.70;99.90
19342;DHT22;9807;48.258;12.690;2023-03-01T16:56:16;8.80;99.90
19342;DHT22;9807;48.258;12.690;2023-03-01T16:58:43;8.80;99.90
19342;DHT22;9807;48.258;12.690;2023-03-01T17:01:16;8.80;99.90
19342;DHT22;9807;48.258;12.690;2023-03-01T17:03:43;8.80;99.90
19342;DHT22;9807;48.258;12.690;2023-03-01T17:06:12;8.70;99.90
19342;DHT22;9807;48.258;12.690;2023-03-01T17:08:39;8.80;99.90
19342;DHT22;9807;48.258;12.690;2023-03-01T17:11:18;8.70;99.90
19342;DHT22;9807;48.258;12.690;2023-03-01T17:13:44;8.70;99.90
19342;DHT22;9807;48.258;12.690;2023-03-01T17:16:14;8.80;99.90
19342;DHT22;9807;48.258;12.690;2023-03-01T17:18:40;8.80;99.90
19342;DHT22;9807;48.258;12.690;2023-03-01T17:21:09;8.60;99.90
19342;DHT22;9807;48.258;12.690;2023-03-01T17:23:36;8.70;99.90
19342;DHT22;9807;48.258;12.690;2023-03-01T17:26:02;8.80;99.90
19342;DHT22;9807;48.258;12.690;2023-03-01T17:28:30;8.60;99.90
19342;DHT22;9807;48.258;12.690;2023-03-01T17:30:58;8.60;99.90
19342;DHT22;9807;48.258;12.690;2023-03-01T17:33:25;8.60;99.90
19342;DHT22;9807;48.258;12.690;2023-03-01T17:35:54;8.70;99.90
19342;DHT22;9807;48.258;12.690;2023-03-01T17:38:20;8.60;99.90
19342;DHT22;9807;48.258;12.690;2023-03-01T17:40:46;8.60;99.90
19342;DHT22;9807;48.258;12.690;2023-03-01T17:43:13;8.60;99.90
19342;DHT22;9807;48.258;12.690;2023-03-01T17:45:42;8.60;99.90
19342;DHT22;9807;48.258;12.690;2023-03-01T17:48:12;8.60;99.90
19342;DHT22;9807;48.258;12.690;2023-03-01T17:50:38;8.60;99.90
19342;DHT22;9807;48.258;12.690;2023-03-01T17:53:08;8.60;99.90
19342;DHT22;9807;48.258;12.690;2023-03-01T17:55:38;8.50;99.90
19342;DHT22;9807;48.258;12.690;2023-03-01T17:58:08;8.40;99.90